Nearby METAR Reports

 

CYOW - Ottawa Intl, Ontario, Canada
Distance from station: N 33km
Updated: Sat, 04-Apr-2020 1:00pm EDT
Mostly cloudy
Mostly cloudy
 Wind from E
Wind: E 9 km/h
Temperature: 12°C
Dew Point: 2°C
Humidity: 51%
Barometer: 30.04 inHg , 1017.3 hPa
Clouds: Mostly cloudy
Visibility: 24 km
Cloud details: Few Clouds 914 m
Partly cloudy 3048 m
Mostly cloudy 7315 m
2020/04/04 17:00 CYOW 041700Z 10005KT 020V130 15SM FEW030 SCT100 BKN240 12/02 A3004 RMK CU1AC4CI2 CU TR SLP178
CYGK - Kingston Arpt, Ontario, Canada
Distance from station: SW 117km
Updated: Sat, 04-Apr-2020 1:00pm EDT
Mostly cloudy
Mostly cloudy
 Wind from S
Wind: S 15 km/h
Temperature: 10°C
Wind Chill: 8°C
Dew Point: 4°C
Humidity: 67%
Barometer: 30.05 inHg , 1017.6 hPa
Clouds: Mostly cloudy
Visibility: 24 km
Cloud details: Few Clouds 1219 m
Mostly cloudy 1524 m
2020/04/04 17:00 CYGK 041700Z 17008KT 15SM FEW040 BKN050 10/04 A3005 RMK SC2SC5 SLP179
KMSS - Massena, New York, USA
Distance from station: E 62km
Updated: Sat, 04-Apr-2020 12:53pm EDT
Few Clouds
Few Clouds
 Wind from NNE
Wind: NNE 15 km/h
Temperature: 11°C
Dew Point: 3°C
Humidity: 58%
Barometer: 30.06 inHg , 1017.9 hPa
Clouds: Few Clouds
Visibility: 16 km
Cloud details: Few Clouds 3048 m
2020/04/04 16:53 KMSS 041653Z AUTO 03008KT 10SM FEW100 11/03 A3006 RMK AO2 SLP181 T01060028